createdAt,value
2023-05-12T00:03:21.200Z,55.70
2023-05-12T00:10:07.218Z,56.39
2023-05-12T00:13:42.529Z,56.25
2023-05-12T00:16:21.920Z,55.57
2023-05-12T00:19:23.394Z,55.89
2023-05-12T00:22:44.371Z,56.13
2023-05-12T00:25:22.760Z,55.85
2023-05-12T00:27:50.760Z,55.91
2023-05-12T00:30:19.221Z,55.79
2023-05-12T00:32:47.305Z,55.64
2023-05-12T00:35:16.079Z,55.96
2023-05-12T00:37:45.462Z,56.11
2023-05-12T00:40:13.451Z,56.11
2023-05-12T00:42:41.504Z,55.66
2023-05-12T00:45:10.382Z,56.01
2023-05-12T00:47:38.546Z,55.71
2023-05-12T00:50:08.444Z,55.64
2023-05-12T00:52:36.549Z,55.67
2023-05-12T00:55:07.286Z,56.15
2023-05-12T00:57:35.130Z,56.04
2023-05-12T01:00:03.003Z,56.16
2023-05-12T01:02:31.637Z,55.89
2023-05-12T01:04:59.779Z,56.21
2023-05-12T01:07:28.657Z,55.99
2023-05-12T01:09:57.322Z,55.64
2023-05-12T01:12:28.505Z,55.63
2023-05-12T01:14:58.405Z,55.91
2023-05-12T01:17:32.767Z,55.95
2023-05-12T01:20:02.868Z,56.14
2023-05-12T01:22:32.198Z,56.19
2023-05-12T01:25:02.706Z,55.76
2023-05-12T01:27:34.219Z,56.08
2023-05-12T01:30:05.953Z,56.04
2023-05-12T01:32:36.055Z,57.06
2023-05-12T01:35:05.182Z,55.88
2023-05-12T01:37:34.288Z,56.07
2023-05-12T01:40:05.694Z,55.85
2023-05-12T01:42:35.238Z,56.34
2023-05-12T01:45:03.507Z,56.20
2023-05-12T01:47:31.970Z,56.30
2023-05-12T01:50:11.022Z,56.34
2023-05-12T01:52:39.750Z,56.43
2023-05-12T01:55:13.206Z,56.52
2023-05-12T01:57:48.167Z,56.18
2023-05-12T02:00:17.200Z,56.32
2023-05-12T02:02:47.729Z,56.24
2023-05-12T02:05:15.955Z,56.53
2023-05-12T02:07:46.488Z,56.67
2023-05-12T02:10:14.507Z,56.77
2023-05-12T02:12:42.489Z,56.77
2023-05-12T02:15:12.787Z,56.66
2023-05-12T02:17:45.074Z,56.97
2023-05-12T02:20:14.314Z,56.65
2023-05-12T02:22:44.019Z,56.51
2023-05-12T02:25:11.875Z,56.46
2023-05-12T02:27:40.045Z,56.61
2023-05-12T02:30:09.239Z,56.68
2023-05-12T02:32:38.739Z,56.68
2023-05-12T02:35:09.184Z,56.91
2023-05-12T02:37:38.342Z,56.85
2023-05-12T02:40:08.453Z,56.73
2023-05-12T02:42:38.471Z,56.77
2023-05-12T02:45:07.435Z,56.17
2023-05-12T02:47:35.261Z,56.45
2023-05-12T02:50:05.487Z,56.14
2023-05-12T02:52:33.339Z,56.53
2023-05-12T02:55:01.212Z,56.50
2023-05-12T02:57:34.289Z,56.27
2023-05-12T03:00:04.734Z,56.54
2023-05-12T03:02:34.080Z,56.20
2023-05-12T03:05:02.060Z,56.60
2023-05-12T03:07:31.633Z,56.15
2023-05-12T03:10:00.221Z,56.21
2023-05-12T03:12:29.328Z,56.10
2023-05-12T03:14:57.511Z,55.88
2023-05-12T03:17:25.370Z,55.79
2023-05-12T03:19:53.443Z,56.18
2023-05-12T03:22:21.267Z,56.43
2023-05-12T03:24:50.597Z,56.13
2023-05-12T03:27:18.506Z,56.68
2023-05-12T03:29:46.680Z,56.71
2023-05-12T03:32:14.580Z,56.69
2023-05-12T03:34:42.405Z,56.66
2023-05-12T03:37:10.555Z,56.21
2023-05-12T03:39:38.825Z,56.77
2023-05-12T03:42:08.695Z,56.67
2023-05-12T03:44:36.508Z,56.85
2023-05-12T03:47:04.457Z,56.82
2023-05-12T03:49:32.376Z,56.62
2023-05-12T03:52:00.457Z,56.98
2023-05-12T03:54:28.272Z,56.94
2023-05-12T03:56:56.101Z,56.43
2023-05-12T03:59:25.710Z,56.93
2023-05-12T04:01:54.269Z,56.58
2023-05-12T04:04:22.238Z,56.80
2023-05-12T04:06:50.170Z,57.00
2023-05-12T04:09:18.501Z,57.12
2023-05-12T04:11:46.314Z,57.10
2023-05-12T04:14:14.140Z,56.79
2023-05-12T04:16:43.425Z,56.95
2023-05-12T04:19:11.369Z,56.79
2023-05-12T04:21:39.161Z,56.83
2023-05-12T04:24:07.458Z,56.72
2023-05-12T04:26:37.578Z,56.62
2023-05-12T04:29:05.403Z,57.28
2023-05-12T04:31:33.515Z,56.80
2023-05-12T04:34:04.319Z,57.11
2023-05-12T04:36:33.881Z,57.02
2023-05-12T04:39:02.442Z,56.39
2023-05-12T04:41:30.567Z,56.92
2023-05-12T04:44:00.372Z,56.88
2023-05-12T04:46:28.703Z,56.64
2023-05-12T04:48:56.546Z,56.72
2023-05-12T04:51:27.076Z,56.27
2023-05-12T04:53:55.133Z,56.51
2023-05-12T04:56:23.553Z,56.13
2023-05-12T04:58:51.788Z,56.60
2023-05-12T05:01:19.694Z,56.03
2023-05-12T05:03:48.282Z,56.24
2023-05-12T05:06:16.406Z,56.00
2023-05-12T05:08:46.034Z,56.02
2023-05-12T05:11:13.815Z,56.24
2023-05-12T05:13:47.850Z,55.83
2023-05-12T05:16:15.871Z,56.27
2023-05-12T05:18:46.485Z,55.51
2023-05-12T05:21:14.974Z,55.75
2023-05-12T05:23:47.202Z,56.20
2023-05-12T05:26:15.444Z,56.49
2023-05-12T05:28:44.428Z,56.12
2023-05-12T05:31:16.528Z,55.69
2023-05-12T05:33:44.535Z,55.23
2023-05-12T05:36:12.510Z,55.68
2023-05-12T05:38:40.576Z,55.07
2023-05-12T05:41:09.785Z,55.56
2023-05-12T05:43:37.878Z,55.26
2023-05-12T05:46:06.610Z,55.10
2023-05-12T05:48:36.370Z,54.96
2023-05-12T05:51:05.092Z,55.34
2023-05-12T05:53:33.414Z,54.98
2023-05-12T05:56:01.402Z,55.01
2023-05-12T06:01:26.085Z,55.06
2023-05-12T06:03:54.284Z,55.20
2023-05-12T06:06:23.155Z,54.96
2023-05-12T06:08:51.220Z,55.40
2023-05-12T06:11:19.004Z,55.46
2023-05-12T06:13:46.860Z,55.37
2023-05-12T06:16:14.676Z,55.28
2023-05-12T06:18:43.967Z,54.90
2023-05-12T06:21:11.754Z,55.33
2023-05-12T06:23:39.595Z,54.86
2023-05-12T06:26:07.760Z,55.28
2023-05-12T06:28:35.526Z,54.65
2023-05-12T06:31:03.350Z,54.80
2023-05-12T06:33:31.229Z,54.48
2023-05-12T06:36:00.360Z,54.42
2023-05-12T06:38:28.200Z,54.91
2023-05-12T06:40:55.970Z,54.89
2023-05-12T06:43:24.402Z,55.07
2023-05-12T06:45:56.754Z,55.12
2023-05-12T06:48:24.980Z,54.30
2023-05-12T06:50:56.431Z,54.32
2023-05-12T06:53:30.742Z,55.32
2023-05-12T06:55:58.792Z,54.60
2023-05-12T06:58:26.608Z,54.74
2023-05-12T07:00:54.490Z,54.50
2023-05-12T07:03:22.401Z,54.42
2023-05-12T07:05:50.319Z,54.76
2023-05-12T07:08:18.182Z,54.27
2023-05-12T07:10:47.425Z,54.39
2023-05-12T07:13:15.216Z,54.66
2023-05-12T07:15:43.476Z,54.22
2023-05-12T07:18:11.366Z,54.29
2023-05-12T07:20:39.236Z,54.33
2023-05-12T07:23:07.081Z,54.39
2023-05-12T07:25:34.928Z,54.46
2023-05-12T07:28:04.222Z,54.19
2023-05-12T07:30:32.277Z,53.80
2023-05-12T07:33:01.266Z,54.21
2023-05-12T07:35:29.243Z,53.79
2023-05-12T07:37:57.074Z,53.97
2023-05-12T07:40:25.119Z,54.29
2023-05-12T07:42:53.080Z,54.20
2023-05-12T07:45:24.809Z,54.18
2023-05-12T07:47:53.219Z,54.20
2023-05-12T07:50:21.841Z,53.64
2023-05-12T07:52:50.358Z,53.88
2023-05-12T07:55:19.630Z,53.88
2023-05-12T07:57:48.141Z,53.47
2023-05-12T08:00:17.382Z,53.36
2023-05-12T08:02:47.239Z,53.61
2023-05-12T08:05:15.526Z,53.00
2023-05-12T08:07:43.984Z,53.58
2023-05-12T08:10:12.930Z,53.30
2023-05-12T08:12:41.495Z,53.09
2023-05-12T08:15:10.080Z,53.25
2023-05-12T08:17:37.888Z,53.55
2023-05-12T08:20:09.067Z,53.09
2023-05-12T08:22:36.998Z,53.56
2023-05-12T08:25:05.982Z,53.62
2023-05-12T08:27:33.926Z,53.57
2023-05-12T08:30:01.856Z,53.06
2023-05-12T08:32:29.901Z,53.41
2023-05-12T08:34:57.881Z,52.99
2023-05-12T08:37:27.454Z,53.26
2023-05-12T08:39:55.342Z,53.05
2023-05-12T08:42:32.540Z,52.30
2023-05-12T08:45:01.094Z,52.79
2023-05-12T08:47:30.096Z,52.85
2023-05-12T08:50:01.013Z,52.29
2023-05-12T08:52:32.782Z,52.46
2023-05-12T08:55:01.683Z,53.18
2023-05-12T08:57:32.096Z,52.57
2023-05-12T09:00:00.655Z,52.87
2023-05-12T09:02:41.013Z,52.39
2023-05-12T09:05:16.591Z,53.03
2023-05-12T09:07:46.779Z,52.71
2023-05-12T09:10:29.852Z,52.65
2023-05-12T09:13:04.841Z,52.32
2023-05-12T09:15:36.740Z,52.02
2023-05-12T09:18:04.670Z,52.08
2023-05-12T09:20:32.791Z,51.89
2023-05-12T09:23:13.994Z,50.99
2023-05-12T09:25:41.913Z,51.67
2023-05-12T09:28:10.152Z,51.42
2023-05-12T09:30:38.557Z,51.83
2023-05-12T09:33:07.937Z,51.49
2023-05-12T09:35:42.994Z,50.81
2023-05-12T09:38:14.122Z,50.74
2023-05-12T09:40:43.098Z,51.00
2023-05-12T09:43:14.399Z,51.04
2023-05-12T09:45:46.606Z,50.70
2023-05-12T09:48:14.951Z,50.76
2023-05-12T09:50:48.432Z,49.76
2023-05-12T09:53:19.253Z,50.50
2023-05-12T09:55:48.572Z,50.53
2023-05-12T09:58:19.099Z,50.25
2023-05-12T10:03:21.872Z,50.68
2023-05-12T10:05:51.785Z,51.22
2023-05-12T10:08:26.450Z,50.19
2023-05-12T10:10:57.320Z,50.70
2023-05-12T10:13:26.279Z,50.34
2023-05-12T10:15:57.056Z,49.85
2023-05-12T10:18:25.569Z,50.08
2023-05-12T10:20:54.772Z,49.94
2023-05-12T10:23:24.778Z,49.36
2023-05-12T10:25:54.701Z,49.09
2023-05-12T10:28:22.517Z,48.64
2023-05-12T10:30:51.904Z,48.64
2023-05-12T10:33:20.153Z,48.21
2023-05-12T10:35:49.494Z,48.04
2023-05-12T10:38:17.601Z,47.73
2023-05-12T10:40:55.218Z,45.75
2023-05-12T10:43:24.762Z,46.97
2023-05-12T10:46:08.725Z,44.51
2023-05-12T10:48:38.407Z,46.05
2023-05-12T10:51:10.079Z,45.20
2023-05-12T10:53:49.190Z,44.63
2023-05-12T10:56:23.952Z,41.18
2023-05-12T10:59:14.486Z,42.40
2023-05-12T11:01:44.569Z,44.80
2023-05-12T11:04:15.310Z,44.73
2023-05-12T11:06:46.787Z,44.56
2023-05-12T11:09:17.406Z,44.61
2023-05-12T11:11:47.963Z,43.90
2023-05-12T11:14:16.529Z,43.92
2023-05-12T11:16:44.467Z,43.70
2023-05-12T11:19:12.778Z,43.56
2023-05-12T11:21:41.115Z,43.59
2023-05-12T11:24:13.253Z,44.18
2023-05-12T11:26:41.642Z,44.34
2023-05-12T11:29:11.140Z,44.60
2023-05-12T11:31:39.764Z,44.68
2023-05-12T11:34:13.106Z,44.67
2023-05-12T11:36:43.405Z,44.12
2023-05-12T11:39:14.978Z,43.78
2023-05-12T11:41:42.895Z,44.49
2023-05-12T11:44:16.867Z,42.69
2023-05-12T11:46:58.124Z,42.40
2023-05-12T11:49:26.203Z,44.34
2023-05-12T11:51:55.146Z,44.31
2023-05-12T11:54:23.758Z,44.57
2023-05-12T11:56:52.648Z,44.31
2023-05-12T11:59:32.633Z,43.59
2023-05-12T12:02:02.790Z,44.28
2023-05-12T12:04:38.989Z,43.01
2023-05-12T12:07:08.055Z,43.75
2023-05-12T12:09:37.496Z,43.85
2023-05-12T12:12:06.969Z,44.00
2023-05-12T12:14:38.300Z,43.67
2023-05-12T12:17:06.400Z,43.34
2023-05-12T12:19:34.181Z,43.67
2023-05-12T12:22:02.035Z,43.67
2023-05-12T12:24:30.062Z,43.60
2023-05-12T12:26:58.102Z,43.73
2023-05-12T12:29:28.397Z,43.59
2023-05-12T12:31:57.687Z,43.42
2023-05-12T12:34:25.404Z,43.06
2023-05-12T12:36:53.305Z,42.93
2023-05-12T12:39:21.759Z,43.14
2023-05-12T12:41:49.672Z,42.54
2023-05-12T12:44:17.755Z,42.49
2023-05-12T12:46:45.738Z,42.13
2023-05-12T12:49:15.122Z,41.97
2023-05-12T12:51:46.830Z,42.13
2023-05-12T12:54:15.465Z,42.47
2023-05-12T12:56:44.350Z,42.15
2023-05-12T12:59:12.798Z,42.28
2023-05-12T13:01:40.620Z,42.29
2023-05-12T13:04:08.450Z,41.83
2023-05-12T13:06:38.691Z,41.46
2023-05-12T13:09:06.626Z,41.63
2023-05-12T13:11:34.420Z,41.25
2023-05-12T13:14:04.257Z,41.67
2023-05-12T13:16:32.216Z,41.59
2023-05-12T13:19:00.145Z,41.38
2023-05-12T13:21:28.464Z,41.62
2023-05-12T13:23:57.595Z,41.18
2023-05-12T13:26:25.436Z,41.12
2023-05-12T13:28:53.524Z,41.51
2023-05-12T13:31:21.476Z,41.41
2023-05-12T13:33:49.365Z,41.77
2023-05-12T13:36:17.326Z,41.40
2023-05-12T13:38:47.498Z,41.38
2023-05-12T13:41:16.692Z,41.11
2023-05-12T13:43:44.925Z,41.25
2023-05-12T13:46:12.703Z,41.46
2023-05-12T13:48:40.782Z,41.43
2023-05-12T13:51:08.685Z,41.28
2023-05-12T13:53:38.466Z,41.53
2023-05-12T13:56:17.206Z,41.50
2023-05-12T13:58:45.086Z,41.56
2023-05-12T14:01:13.133Z,41.57
2023-05-12T14:03:42.248Z,41.12
2023-05-12T14:06:10.944Z,41.29
2023-05-12T14:08:40.256Z,41.29
2023-05-12T14:11:08.635Z,41.33
2023-05-12T14:13:37.852Z,41.44
2023-05-12T14:16:06.404Z,41.32
2023-05-12T14:18:34.319Z,41.82
2023-05-12T14:21:02.588Z,41.51
2023-05-12T14:23:30.522Z,41.67
2023-05-12T14:25:58.630Z,41.67
2023-05-12T14:28:26.632Z,41.51
2023-05-12T14:30:55.803Z,41.65
2023-05-12T14:33:26.747Z,41.43
2023-05-12T14:36:05.932Z,42.02
2023-05-12T14:38:35.714Z,41.61
2023-05-12T14:41:03.975Z,41.44
2023-05-12T14:43:32.393Z,42.06
2023-05-12T14:46:02.285Z,41.99
2023-05-12T14:48:30.384Z,41.78
2023-05-12T14:50:58.830Z,41.86
2023-05-12T14:53:27.086Z,41.60
2023-05-12T14:55:54.948Z,41.48
2023-05-12T14:58:24.088Z,41.49
2023-05-12T15:00:52.756Z,41.82
2023-05-12T15:03:22.388Z,41.58
2023-05-12T15:06:04.674Z,41.18
2023-05-12T15:08:34.558Z,41.20
2023-05-12T15:11:02.325Z,40.07
2023-05-12T15:13:30.262Z,40.04
2023-05-12T15:15:58.102Z,39.84
2023-05-12T15:18:27.288Z,39.62
2023-05-12T15:20:55.103Z,39.76
2023-05-12T15:23:23.156Z,39.48
2023-05-12T15:25:51.273Z,39.62
2023-05-12T15:28:19.327Z,39.03
2023-05-12T15:30:55.426Z,37.29
2023-05-12T15:33:23.341Z,38.95
2023-05-12T15:35:52.671Z,38.80
2023-05-12T15:38:20.541Z,38.88
2023-05-12T15:40:48.394Z,38.30
2023-05-12T15:43:16.224Z,38.15
2023-05-12T15:45:44.039Z,38.06
2023-05-12T15:48:11.864Z,38.16
2023-05-12T15:50:39.690Z,38.09
2023-05-12T15:53:08.918Z,38.04
2023-05-12T15:55:36.837Z,38.02
2023-05-12T15:58:05.425Z,38.13
2023-05-12T16:00:33.497Z,38.03
2023-05-12T16:03:01.872Z,38.40
2023-05-12T16:05:29.885Z,38.65
2023-05-12T16:07:57.746Z,38.50
2023-05-12T16:10:27.048Z,38.82
2023-05-12T16:12:55.081Z,38.90
2023-05-12T16:15:22.962Z,39.40
2023-05-12T16:17:50.976Z,39.61
2023-05-12T16:20:19.134Z,39.43
2023-05-12T16:22:47.605Z,39.65
2023-05-12T16:25:15.625Z,39.78
2023-05-12T16:27:44.979Z,40.06
2023-05-12T16:30:13.597Z,39.99
2023-05-12T16:32:41.778Z,40.18
2023-05-12T16:35:10.180Z,40.32
2023-05-12T16:37:38.076Z,39.85
2023-05-12T16:40:07.164Z,39.93
2023-05-12T16:42:35.040Z,40.37
2023-05-12T16:45:04.348Z,40.40
2023-05-12T16:47:32.202Z,40.14
2023-05-12T16:50:00.301Z,40.54
2023-05-12T16:52:28.385Z,40.41
2023-05-12T16:54:57.142Z,40.00
2023-05-12T16:57:25.213Z,40.13
2023-05-12T16:59:53.182Z,40.02
2023-05-12T17:02:22.542Z,39.87
2023-05-12T17:04:50.391Z,40.35
2023-05-12T17:07:18.593Z,40.11
2023-05-12T17:09:46.414Z,40.23
2023-05-12T17:12:14.323Z,40.32
2023-05-12T17:14:44.339Z,40.17
2023-05-12T17:17:13.752Z,40.62
2023-05-12T17:19:43.285Z,40.63
2023-05-12T17:22:11.287Z,40.59
2023-05-12T17:24:39.115Z,40.33
2023-05-12T17:27:07.010Z,40.51
2023-05-12T17:29:34.831Z,40.44
2023-05-12T17:32:03.034Z,40.47
2023-05-12T17:34:30.852Z,40.17
2023-05-12T17:37:00.222Z,40.16
2023-05-12T17:39:27.996Z,40.23
2023-05-12T17:41:56.002Z,40.06
2023-05-12T17:44:23.920Z,39.57
2023-05-12T17:46:51.779Z,39.95
2023-05-12T17:49:19.628Z,39.52
2023-05-12T17:51:49.362Z,39.71
2023-05-12T17:54:18.596Z,39.34
2023-05-12T17:56:47.196Z,39.71
2023-05-12T17:59:15.196Z,39.65
2023-05-12T18:01:43.005Z,39.68
2023-05-12T18:04:10.825Z,39.57
2023-05-12T18:06:38.639Z,39.54
2023-05-12T18:09:06.785Z,39.55
2023-05-12T18:11:36.149Z,39.73
2023-05-12T18:14:05.765Z,39.99
2023-05-12T18:16:33.718Z,39.76
2023-05-12T18:19:01.820Z,39.90
2023-05-12T18:21:29.694Z,40.45
2023-05-12T18:23:57.515Z,39.93
2023-05-12T18:26:26.423Z,40.20
2023-05-12T18:28:55.688Z,40.31
2023-05-12T18:31:23.560Z,40.81
2023-05-12T18:33:51.404Z,40.51
2023-05-12T18:36:19.711Z,40.88
2023-05-12T18:38:48.034Z,40.67
2023-05-12T18:41:15.840Z,41.05
2023-05-12T18:43:44.785Z,40.95
2023-05-12T18:46:14.048Z,40.67
2023-05-12T18:48:41.945Z,41.22
2023-05-12T18:51:09.823Z,41.10
2023-05-12T18:53:37.686Z,40.98
2023-05-12T18:56:05.670Z,41.01
2023-05-12T18:58:33.628Z,40.98
2023-05-12T19:01:01.974Z,41.07
2023-05-12T19:03:32.297Z,41.00
2023-05-12T19:06:00.115Z,41.69
2023-05-12T19:08:27.984Z,41.64
2023-05-12T19:10:55.832Z,41.64
2023-05-12T19:13:23.702Z,41.31
2023-05-12T19:15:51.566Z,41.22
2023-05-12T19:18:19.467Z,41.38
2023-05-12T19:20:48.931Z,41.87
2023-05-12T19:23:17.166Z,42.07
2023-05-12T19:25:45.167Z,41.79
2023-05-12T19:28:13.065Z,41.58
2023-05-12T19:30:40.942Z,41.96
2023-05-12T19:33:08.930Z,42.25
2023-05-12T19:35:36.810Z,42.05
2023-05-12T19:38:06.145Z,42.19
2023-05-12T19:40:34.107Z,42.04
2023-05-12T19:43:02.116Z,42.05
2023-05-12T19:45:30.081Z,42.04
2023-05-12T19:47:58.257Z,42.46
2023-05-12T19:50:26.369Z,42.19
2023-05-12T19:52:54.226Z,42.12
2023-05-12T19:55:23.577Z,42.72
2023-05-12T19:57:51.775Z,42.61
2023-05-12T20:00:22.074Z,42.84
2023-05-12T20:02:50.453Z,42.36
2023-05-12T20:05:18.798Z,42.92
2023-05-12T20:07:48.398Z,42.63
2023-05-12T20:10:16.382Z,42.47
2023-05-12T20:12:45.775Z,42.60
2023-05-12T20:15:13.570Z,42.87
2023-05-12T20:17:41.542Z,43.17
2023-05-12T20:20:11.466Z,43.03
2023-05-12T20:22:39.486Z,43.13
2023-05-12T20:25:07.892Z,42.93
2023-05-12T20:27:35.916Z,43.38
2023-05-12T20:30:05.898Z,42.91
2023-05-12T20:32:33.889Z,42.87
2023-05-12T20:35:01.809Z,43.19
2023-05-12T20:37:29.745Z,43.00
2023-05-12T20:39:57.602Z,43.19
2023-05-12T20:42:25.690Z,43.62
2023-05-12T20:44:53.680Z,43.20
2023-05-12T20:47:23.167Z,43.64
2023-05-12T20:49:56.049Z,43.85
2023-05-12T20:52:24.697Z,43.21
2023-05-12T20:54:57.081Z,43.79
2023-05-12T20:57:24.961Z,43.35
2023-05-12T20:59:54.476Z,43.52
2023-05-12T21:02:24.116Z,43.83
2023-05-12T21:04:52.216Z,43.38
2023-05-12T21:07:20.854Z,43.86
2023-05-12T21:09:48.824Z,43.76
2023-05-12T21:12:17.031Z,44.03
2023-05-12T21:14:46.267Z,43.89
2023-05-12T21:17:14.136Z,43.61
2023-05-12T21:19:44.197Z,44.16
2023-05-12T21:22:13.016Z,44.12
2023-05-12T21:24:42.084Z,43.68
2023-05-12T21:27:10.347Z,43.88
2023-05-12T21:29:38.462Z,44.04
2023-05-12T21:32:07.154Z,43.95
2023-05-12T21:34:36.098Z,44.11
2023-05-12T21:37:05.724Z,44.07
2023-05-12T21:39:33.771Z,44.07
2023-05-12T21:42:02.000Z,44.55
2023-05-12T21:44:29.973Z,44.12
2023-05-12T21:46:58.663Z,44.12
2023-05-12T21:49:26.876Z,44.07
2023-05-12T21:51:55.919Z,44.46
2023-05-12T21:54:25.258Z,44.61
2023-05-12T21:56:53.154Z,44.12
2023-05-12T21:59:21.066Z,44.66
2023-05-12T22:01:48.929Z,44.53
2023-05-12T22:04:16.771Z,44.23
2023-05-12T22:06:44.618Z,44.66
2023-05-12T22:09:12.827Z,44.92
2023-05-12T22:11:42.045Z,44.36
2023-05-12T22:14:09.872Z,44.47
2023-05-12T22:16:41.790Z,44.46
2023-05-12T22:19:10.877Z,44.79
2023-05-12T22:21:38.828Z,44.91
2023-05-12T22:24:07.386Z,44.73
2023-05-12T22:26:35.323Z,44.98
2023-05-12T22:29:04.550Z,44.42
2023-05-12T22:31:32.393Z,44.91
2023-05-12T22:34:00.380Z,44.51
2023-05-12T22:36:28.437Z,44.65
2023-05-12T22:38:56.269Z,44.40
2023-05-12T22:41:24.082Z,44.43
2023-05-12T22:43:51.990Z,44.56
2023-05-12T22:46:21.176Z,44.93
2023-05-12T22:48:50.832Z,44.63
2023-05-12T22:51:18.633Z,44.91
2023-05-12T22:53:46.572Z,44.52
2023-05-12T22:56:14.583Z,44.80
2023-05-12T22:58:42.655Z,44.83
2023-05-12T23:01:10.801Z,44.94
2023-05-12T23:03:40.251Z,44.34
2023-05-12T23:06:08.471Z,45.01
2023-05-12T23:08:36.380Z,44.57
2023-05-12T23:11:04.320Z,45.04
2023-05-12T23:13:32.182Z,44.97
2023-05-12T23:16:00.076Z,45.05
2023-05-12T23:18:28.142Z,44.76
2023-05-12T23:20:57.448Z,44.54
2023-05-12T23:23:25.521Z,44.88
2023-05-12T23:25:53.440Z,44.61
2023-05-12T23:28:21.549Z,45.12
2023-05-12T23:30:49.390Z,44.64
2023-05-12T23:33:17.718Z,44.91
2023-05-12T23:35:45.657Z,45.06
2023-05-12T23:38:14.976Z,44.79
2023-05-12T23:40:42.922Z,44.72
2023-05-12T23:43:10.927Z,45.01
2023-05-12T23:45:38.758Z,45.10
2023-05-12T23:48:07.508Z,45.21
2023-05-12T23:50:36.078Z,44.76
2023-05-12T23:53:04.022Z,44.90
2023-05-12T23:55:33.366Z,44.87
2023-05-12T23:58:01.326Z,44.71
